sensor_id;sensor_type;location;lat;lon;timestamp;pressure;altitude;pressure_sealevel;temperature;humidity
38163;BME280;23977;53.078;18.248;2023-03-01T00:01:23;102772.97;;;-4.70;100.00
38163;BME280;23977;53.078;18.248;2023-03-01T00:03:51;102782.06;;;-4.20;100.00
38163;BME280;23977;53.078;18.248;2023-03-01T00:06:18;102781.31;;;-4.31;100.00
38163;BME280;23977;53.078;18.248;2023-03-01T00:08:45;102798.09;;;-4.72;100.00
38163;BME280;23977;53.078;18.248;2023-03-01T00:11:22;102781.75;;;-4.87;100.00
38163;BME280;23977;53.078;18.248;2023-03-01T00:13:50;102798.78;;;-4.50;100.00
38163;BME280;23977;53.078;18.248;2023-03-01T00:16:19;102721.28;;;-5.04;100.00
38163;BME280;23977;53.078;18.248;2023-03-01T00:18:45;102738.41;;;-4.78;100.00
38163;BME280;23977;53.078;18.248;2023-03-01T00:21:11;102786.06;;;-4.82;100.00
38163;BME280;23977;53.078;18.248;2023-03-01T00:23:37;102742.19;;;-5.21;100.00
38163;BME280;23977;53.078;18.248;2023-03-01T00:26:08;102768.97;;;-5.17;100.00
38163;BME280;23977;53.078;18.248;2023-03-01T00:28:36;102757.81;;;-5.35;100.00
38163;BME280;23977;53.078;18.248;2023-03-01T00:31:06;102759.53;;;-5.32;100.00
38163;BME280;23977;53.078;18.248;2023-03-01T00:33:32;102754.22;;;-5.12;100.00
38163;BME280;23977;53.078;18.248;2023-03-01T00:35:58;102734.38;;;-5.19;100.00
38163;BME280;23977;53.078;18.248;2023-03-01T00:38:24;102712.00;;;-5.39;100.00
38163;BME280;23977;53.078;18.248;2023-03-01T00:40:50;102759.41;;;-5.06;100.00
38163;BME280;23977;53.078;18.248;2023-03-01T00:43:16;102686.78;;;-5.20;100.00
38163;BME280;23977;53.078;18.248;2023-03-01T00:45:41;102761.50;;;-4.44;100.00
38163;BME280;23977;53.078;18.248;2023-03-01T00:48:07;102708.75;;;-4.53;100.00
38163;BME280;23977;53.078;18.248;2023-03-01T00:50:33;102751.78;;;-4.24;100.00
38163;BME280;23977;53.078;18.248;2023-03-01T00:52:58;102655.44;;;-4.97;100.00
38163;BME280;23977;53.078;18.248;2023-03-01T00:55:25;102749.47;;;-4.56;100.00
38163;BME280;23977;53.078;18.248;2023-03-01T00:57:51;102748.75;;;-4.72;100.00
38163;BME280;23977;53.078;18.248;2023-03-01T01:00:17;102701.22;;;-4.82;100.00
38163;BME280;23977;53.078;18.248;2023-03-01T01:02:44;102690.75;;;-4.71;100.00
38163;BME280;23977;53.078;18.248;2023-03-01T01:05:10;102731.41;;;-4.72;100.00
38163;BME280;23977;53.078;18.248;2023-03-01T01:07:36;102743.75;;;-5.02;100.00
38163;BME280;23977;53.078;18.248;2023-03-01T01:10:02;102675.78;;;-5.58;100.00
38163;BME280;23977;53.078;18.248;2023-03-01T01:12:28;102732.69;;;-5.27;100.00
38163;BME280;23977;53.078;18.248;2023-03-01T01:14:54;102727.50;;;-5.27;100.00
38163;BME280;23977;53.078;18.248;2023-03-01T01:17:20;102723.09;;;-5.12;100.00
38163;BME280;23977;53.078;18.248;2023-03-01T01:19:45;102715.13;;;-4.88;100.00
38163;BME280;23977;53.078;18.248;2023-03-01T01:22:11;102642.81;;;-5.40;100.00
38163;BME280;23977;53.078;18.248;2023-03-01T01:24:37;102707.47;;;-5.08;100.00
38163;BME280;23977;53.078;18.248;2023-03-01T01:27:02;102622.84;;;-5.32;100.00
38163;BME280;23977;53.078;18.248;2023-03-01T01:29:28;102682.16;;;-4.79;100.00
38163;BME280;23977;53.078;18.248;2023-03-01T01:31:54;102692.53;;;-4.79;100.00
38163;BME280;23977;53.078;18.248;2023-03-01T01:34:21;102695.88;;;-4.70;100.00
38163;BME280;23977;53.078;18.248;2023-03-01T01:36:52;102692.25;;;-4.52;100.00
38163;BME280;23977;53.078;18.248;2023-03-01T01:39:22;102645.00;;;-4.88;100.00
38163;BME280;23977;53.078;18.248;2023-03-01T01:41:48;102625.28;;;-5.13;100.00
38163;BME280;23977;53.078;18.248;2023-03-01T01:44:26;102659.47;;;-4.62;100.00
38163;BME280;23977;53.078;18.248;2023-03-01T01:47:13;102652.13;;;-4.23;100.00
38163;BME280;23977;53.078;18.248;2023-03-01T01:49:45;102604.94;;;-4.65;100.00
38163;BME280;23977;53.078;18.248;2023-03-01T01:52:26;102689.63;;;-4.47;100.00
38163;BME280;23977;53.078;18.248;2023-03-01T01:55:07;102656.13;;;-4.76;100.00
38163;BME280;23977;53.078;18.248;2023-03-01T01:57:45;102673.72;;;-4.16;100.00
38163;BME280;23977;53.078;18.248;2023-03-01T02:00:17;102540.78;;;-4.60;100.00
38163;BME280;23977;53.078;18.248;2023-03-01T02:02:44;102668.19;;;-3.93;100.00
38163;BME280;23977;53.078;18.248;2023-03-01T02:05:22;102682.31;;;-4.11;100.00
38163;BME280;23977;53.078;18.248;2023-03-01T02:07:51;102654.88;;;-4.38;100.00
38163;BME280;23977;53.078;18.248;2023-03-01T02:10:17;102655.78;;;-4.42;100.00
38163;BME280;23977;53.078;18.248;2023-03-01T02:12:43;102583.25;;;-4.62;100.00
38163;BME280;23977;53.078;18.248;2023-03-01T02:15:09;102644.13;;;-4.07;100.00
38163;BME280;23977;53.078;18.248;2023-03-01T02:17:36;102654.25;;;-3.84;100.00
38163;BME280;23977;53.078;18.248;2023-03-01T02:22:43;102665.66;;;-3.96;100.00
38163;BME280;23977;53.078;18.248;2023-03-01T02:28:32;102599.13;;;-4.92;100.00
38163;BME280;23977;53.078;18.248;2023-03-01T02:30:38;102658.78;;;-4.82;100.00
38163;BME280;23977;53.078;18.248;2023-03-01T02:33:25;102666.56;;;-4.79;100.00
38163;BME280;23977;53.078;18.248;2023-03-01T02:35:52;102659.69;;;-4.87;100.00
38163;BME280;23977;53.078;18.248;2023-03-01T02:38:19;102633.06;;;-5.09;100.00
38163;BME280;23977;53.078;18.248;2023-03-01T02:40:45;102559.94;;;-5.59;100.00
38163;BME280;23977;53.078;18.248;2023-03-01T02:43:12;102659.00;;;-5.07;100.00
38163;BME280;23977;53.078;18.248;2023-03-01T02:45:47;102606.53;;;-5.46;100.00
38163;BME280;23977;53.078;18.248;2023-03-01T02:48:13;102658.22;;;-5.17;100.00
38163;BME280;23977;53.078;18.248;2023-03-01T02:50:52;102646.81;;;-4.97;100.00
38163;BME280;23977;53.078;18.248;2023-03-01T02:53:41;102638.22;;;-5.04;100.00
38163;BME280;23977;53.078;18.248;2023-03-01T02:56:13;102585.59;;;-5.25;100.00
38163;BME280;23977;53.078;18.248;2023-03-01T02:58:41;102633.66;;;-4.80;100.00
38163;BME280;23977;53.078;18.248;2023-03-01T03:01:14;102645.63;;;-4.64;100.00
38163;BME280;23977;53.078;18.248;2023-03-01T03:03:41;102645.56;;;-4.58;100.00
38163;BME280;23977;53.078;18.248;2023-03-01T03:06:07;102537.13;;;-5.21;100.00
38163;BME280;23977;53.078;18.248;2023-03-01T03:08:33;102645.41;;;-4.42;100.00
38163;BME280;23977;53.078;18.248;2023-03-01T03:10:58;102625.50;;;-4.47;100.00
38163;BME280;23977;53.078;18.248;2023-03-01T03:13:24;102634.38;;;-4.65;100.00
38163;BME280;23977;53.078;18.248;2023-03-01T03:15:56;102612.97;;;-4.90;100.00
38163;BME280;23977;53.078;18.248;2023-03-01T03:18:23;102649.81;;;-4.49;100.00
38163;BME280;23977;53.078;18.248;2023-03-01T03:20:52;102642.88;;;-4.50;100.00
38163;BME280;23977;53.078;18.248;2023-03-01T03:23:20;102631.41;;;-4.31;100.00
38163;BME280;23977;53.078;18.248;2023-03-01T03:25:48;102584.09;;;-4.59;100.00
38163;BME280;23977;53.078;18.248;2023-03-01T03:28:14;102632.59;;;-4.58;100.00
38163;BME280;23977;53.078;18.248;2023-03-01T03:30:42;102559.38;;;-4.97;100.00
38163;BME280;23977;53.078;18.248;2023-03-01T03:33:10;102623.06;;;-4.59;100.00
38163;BME280;23977;53.078;18.248;2023-03-01T03:35:42;102618.50;;;-4.40;100.00
38163;BME280;23977;53.078;18.248;2023-03-01T03:38:11;102607.09;;;-4.28;100.00
38163;BME280;23977;53.078;18.248;2023-03-01T03:40:54;102600.81;;;-4.12;100.00
38163;BME280;23977;53.078;18.248;2023-03-01T03:43:26;102527.03;;;-4.68;100.00
38163;BME280;23977;53.078;18.248;2023-03-01T03:45:52;102602.06;;;-4.40;100.00
38163;BME280;23977;53.078;18.248;2023-03-01T03:48:18;102599.25;;;-4.25;100.00
38163;BME280;23977;53.078;18.248;2023-03-01T03:50:48;102580.38;;;-4.38;100.00
38163;BME280;23977;53.078;18.248;2023-03-01T03:53:15;102601.72;;;-4.13;100.00
38163;BME280;23977;53.078;18.248;2023-03-01T03:55:40;102613.75;;;-4.05;100.00
38163;BME280;23977;53.078;18.248;2023-03-01T03:58:08;102608.56;;;-4.05;100.00
38163;BME280;23977;53.078;18.248;2023-03-01T04:00:39;102586.16;;;-4.16;100.00
38163;BME280;23977;53.078;18.248;2023-03-01T04:03:05;102604.09;;;-3.96;100.00
38163;BME280;23977;53.078;18.248;2023-03-01T04:05:32;102609.41;;;-4.05;100.00
38163;BME280;23977;53.078;18.248;2023-03-01T04:07:58;102511.34;;;-4.59;100.00
38163;BME280;23977;53.078;18.248;2023-03-01T04:10:29;102591.81;;;-3.86;100.00
38163;BME280;23977;53.078;18.248;2023-03-01T04:12:55;102623.91;;;-3.87;100.00
38163;BME280;23977;53.078;18.248;2023-03-01T04:15:22;102588.75;;;-4.16;100.00
38163;BME280;23977;53.078;18.248;2023-03-01T04:17:51;102628.03;;;-3.72;100.00
38163;BME280;23977;53.078;18.248;2023-03-01T04:20:20;102498.84;;;-4.32;100.00
38163;BME280;23977;53.078;18.248;2023-03-01T04:23:07;102608.16;;;-3.75;100.00
38163;BME280;23977;53.078;18.248;2023-03-01T04:25:45;102576.59;;;-4.14;100.00
38163;BME280;23977;53.078;18.248;2023-03-01T04:28:11;102626.22;;;-3.65;100.00
38163;BME280;23977;53.078;18.248;2023-03-01T04:30:38;102606.75;;;-4.00;100.00
38163;BME280;23977;53.078;18.248;2023-03-01T04:33:09;102566.50;;;-4.38;100.00
38163;BME280;23977;53.078;18.248;2023-03-01T04:35:36;102602.72;;;-4.23;100.00
38163;BME280;23977;53.078;18.248;2023-03-01T04:38:03;102602.88;;;-4.35;100.00
38163;BME280;23977;53.078;18.248;2023-03-01T04:40:29;102605.38;;;-4.28;100.00
38163;BME280;23977;53.078;18.248;2023-03-01T04:42:54;102584.78;;;-4.44;100.00
38163;BME280;23977;53.078;18.248;2023-03-01T04:45:20;102520.09;;;-4.68;100.00
38163;BME280;23977;53.078;18.248;2023-03-01T04:47:46;102552.56;;;-4.31;100.00
38163;BME280;23977;53.078;18.248;2023-03-01T04:50:15;102556.13;;;-4.41;100.00
38163;BME280;23977;53.078;18.248;2023-03-01T04:52:42;102591.44;;;-4.22;100.00
38163;BME280;23977;53.078;18.248;2023-03-01T04:55:09;102558.81;;;-4.44;100.00
38163;BME280;23977;53.078;18.248;2023-03-01T04:57:35;102567.38;;;-4.36;100.00
38163;BME280;23977;53.078;18.248;2023-03-01T05:00:01;102556.03;;;-4.31;100.00
38163;BME280;23977;53.078;18.248;2023-03-01T05:02:26;102535.94;;;-4.18;100.00
38163;BME280;23977;53.078;18.248;2023-03-01T05:04:52;102572.91;;;-3.97;100.00
38163;BME280;23977;53.078;18.248;2023-03-01T05:07:23;102573.63;;;-3.86;100.00
38163;BME280;23977;53.078;18.248;2023-03-01T05:09:50;102533.34;;;-4.18;100.00
38163;BME280;23977;53.078;18.248;2023-03-01T05:12:15;102591.03;;;-3.91;100.00
38163;BME280;23977;53.078;18.248;2023-03-01T05:14:41;102548.13;;;-4.23;100.00
38163;BME280;23977;53.078;18.248;2023-03-01T05:17:07;102508.25;;;-4.23;100.00
38163;BME280;23977;53.078;18.248;2023-03-01T05:19:33;102553.19;;;-4.12;100.00
38163;BME280;23977;53.078;18.248;2023-03-01T05:21:59;102540.25;;;-4.20;100.00
38163;BME280;23977;53.078;18.248;2023-03-01T05:24:34;102595.97;;;-3.73;100.00
38163;BME280;23977;53.078;18.248;2023-03-01T05:27:01;102533.91;;;-3.97;100.00
38163;BME280;23977;53.078;18.248;2023-03-01T05:29:28;102589.69;;;-3.58;100.00
38163;BME280;23977;53.078;18.248;2023-03-01T05:31:58;102581.78;;;-3.53;100.00
38163;BME280;23977;53.078;18.248;2023-03-01T05:34:29;102581.72;;;-3.50;100.00
38163;BME280;23977;53.078;18.248;2023-03-01T05:36:55;102583.59;;;-3.58;100.00
38163;BME280;23977;53.078;18.248;2023-03-01T05:39:24;102555.34;;;-3.81;100.00
38163;BME280;23977;53.078;18.248;2023-03-01T05:41:59;102587.06;;;-3.56;100.00
38163;BME280;23977;53.078;18.248;2023-03-01T05:44:27;102573.25;;;-3.61;100.00
38163;BME280;23977;53.078;18.248;2023-03-01T05:46:54;102552.53;;;-3.67;100.00
38163;BME280;23977;53.078;18.248;2023-03-01T05:49:20;102548.16;;;-3.65;100.00
38163;BME280;23977;53.078;18.248;2023-03-01T05:51:50;102588.63;;;-3.46;100.00
38163;BME280;23977;53.078;18.248;2023-03-01T05:54:18;102581.34;;;-3.25;100.00
38163;BME280;23977;53.078;18.248;2023-03-01T05:56:44;102541.34;;;-3.21;100.00
38163;BME280;23977;53.078;18.248;2023-03-01T05:59:10;102534.38;;;-3.19;100.00
38163;BME280;23977;53.078;18.248;2023-03-01T06:01:36;102591.00;;;-2.82;100.00
38163;BME280;23977;53.078;18.248;2023-03-01T06:04:03;102569.13;;;-2.75;100.00
38163;BME280;23977;53.078;18.248;2023-03-01T06:06:30;102555.88;;;-2.63;100.00
38163;BME280;23977;53.078;18.248;2023-03-01T06:08:58;102531.41;;;-2.55;100.00
38163;BME280;23977;53.078;18.248;2023-03-01T06:11:24;102550.53;;;-2.14;100.00
38163;BME280;23977;53.078;18.248;2023-03-01T06:13:49;102600.72;;;-1.64;100.00
38163;BME280;23977;53.078;18.248;2023-03-01T06:16:15;102496.94;;;-1.92;100.00
38163;BME280;23977;53.078;18.248;2023-03-01T06:18:41;102585.50;;;-1.10;100.00
38163;BME280;23977;53.078;18.248;2023-03-01T06:21:08;102591.13;;;-0.60;100.00
38163;BME280;23977;53.078;18.248;2023-03-01T06:23:34;102549.19;;;-0.27;98.22
38163;BME280;23977;53.078;18.248;2023-03-01T06:26:00;102593.47;;;0.39;94.83
38163;BME280;23977;53.078;18.248;2023-03-01T06:28:26;102540.13;;;0.66;90.11
38163;BME280;23977;53.078;18.248;2023-03-01T06:30:52;102529.00;;;1.35;83.46
38163;BME280;23977;53.078;18.248;2023-03-01T06:33:18;102562.06;;;2.31;79.67
38163;BME280;23977;53.078;18.248;2023-03-01T06:35:46;102602.13;;;3.21;76.19
38163;BME280;23977;53.078;18.248;2023-03-01T06:38:12;102579.38;;;3.60;73.11
38163;BME280;23977;53.078;18.248;2023-03-01T06:40:40;102571.31;;;4.20;71.39
38163;BME280;23977;53.078;18.248;2023-03-01T06:43:06;102595.41;;;4.66;67.49
38163;BME280;23977;53.078;18.248;2023-03-01T06:45:33;102581.31;;;5.53;65.18
38163;BME280;23977;53.078;18.248;2023-03-01T06:48:06;102593.41;;;6.69;57.93
38163;BME280;23977;53.078;18.248;2023-03-01T06:50:33;102591.34;;;7.47;55.75
38163;BME280;23977;53.078;18.248;2023-03-01T06:52:59;102538.72;;;8.11;51.79
38163;BME280;23977;53.078;18.248;2023-03-01T06:55:25;102570.78;;;8.88;49.02
38163;BME280;23977;53.078;18.248;2023-03-01T06:57:58;102564.59;;;9.52;47.19
38163;BME280;23977;53.078;18.248;2023-03-01T07:00:25;102578.03;;;10.25;44.68
38163;BME280;23977;53.078;18.248;2023-03-01T07:02:52;102557.56;;;10.38;45.73
38163;BME280;23977;53.078;18.248;2023-03-01T07:05:20;102539.94;;;10.48;44.52
38163;BME280;23977;53.078;18.248;2023-03-01T07:07:46;102575.72;;;11.49;41.92
38163;BME280;23977;53.078;18.248;2023-03-01T07:10:12;102538.50;;;11.25;41.88
38163;BME280;23977;53.078;18.248;2023-03-01T07:12:37;102552.47;;;12.71;39.66
38163;BME280;23977;53.078;18.248;2023-03-01T07:15:04;102545.38;;;13.74;38.15
38163;BME280;23977;53.078;18.248;2023-03-01T07:17:29;102516.97;;;14.51;36.80
38163;BME280;23977;53.078;18.248;2023-03-01T07:19:56;102532.56;;;15.04;35.93
38163;BME280;23977;53.078;18.248;2023-03-01T07:22:22;102540.56;;;16.51;33.62
38163;BME280;23977;53.078;18.248;2023-03-01T07:24:48;102536.03;;;18.40;31.16
38163;BME280;23977;53.078;18.248;2023-03-01T07:27:13;102524.53;;;19.67;28.16
38163;BME280;23977;53.078;18.248;2023-03-01T07:29:39;102516.75;;;20.26;26.66
38163;BME280;23977;53.078;18.248;2023-03-01T07:32:05;102492.06;;;20.82;26.52
38163;BME280;23977;53.078;18.248;2023-03-01T07:34:32;102501.53;;;21.53;25.13
38163;BME280;23977;53.078;18.248;2023-03-01T07:36:58;102524.38;;;21.14;25.83
38163;BME280;23977;53.078;18.248;2023-03-01T07:39:23;102529.59;;;20.85;26.15
38163;BME280;23977;53.078;18.248;2023-03-01T07:41:50;102516.06;;;21.30;25.12
38163;BME280;23977;53.078;18.248;2023-03-01T07:44:16;102502.81;;;23.00;23.45
38163;BME280;23977;53.078;18.248;2023-03-01T07:46:43;102509.72;;;24.19;22.06
38163;BME280;23977;53.078;18.248;2023-03-01T07:49:09;102490.81;;;22.81;23.57
38163;BME280;23977;53.078;18.248;2023-03-01T07:51:35;102471.22;;;24.55;21.23
38163;BME280;23977;53.078;18.248;2023-03-01T07:54:01;102487.53;;;24.55;21.83
38163;BME280;23977;53.078;18.248;2023-03-01T07:56:26;102507.06;;;25.18;21.49
38163;BME280;23977;53.078;18.248;2023-03-01T07:58:52;102428.09;;;24.32;21.31
38163;BME280;23977;53.078;18.248;2023-03-01T08:01:20;102500.38;;;25.14;21.41
38163;BME280;23977;53.078;18.248;2023-03-01T08:03:47;102472.97;;;25.54;20.90
38163;BME280;23977;53.078;18.248;2023-03-01T08:06:15;102490.09;;;26.75;20.19
38163;BME280;23977;53.078;18.248;2023-03-01T08:08:41;102438.41;;;26.92;19.67
38163;BME280;23977;53.078;18.248;2023-03-01T08:11:09;102481.75;;;27.67;18.84
38163;BME280;23977;53.078;18.248;2023-03-01T08:13:35;102496.91;;;26.15;19.91
38163;BME280;23977;53.078;18.248;2023-03-01T08:16:07;102473.13;;;26.22;20.02
38163;BME280;23977;53.078;18.248;2023-03-01T08:18:33;102457.25;;;25.49;20.69
38163;BME280;23977;53.078;18.248;2023-03-01T08:21:08;102459.03;;;24.51;21.19
38163;BME280;23977;53.078;18.248;2023-03-01T08:23:34;102501.75;;;24.37;21.68
38163;BME280;23977;53.078;18.248;2023-03-01T08:26:11;102496.22;;;23.71;22.84
38163;BME280;23977;53.078;18.248;2023-03-01T08:28:38;102504.28;;;24.06;22.20
38163;BME280;23977;53.078;18.248;2023-03-01T08:31:25;102512.84;;;24.76;21.56
38163;BME280;23977;53.078;18.248;2023-03-01T08:33:54;102497.69;;;25.07;21.22
38163;BME280;23977;53.078;18.248;2023-03-01T08:36:24;102509.19;;;27.12;19.98
38163;BME280;23977;53.078;18.248;2023-03-01T08:38:51;102501.22;;;27.90;19.18
38163;BME280;23977;53.078;18.248;2023-03-01T08:41:17;102453.41;;;30.41;17.19
38163;BME280;23977;53.078;18.248;2023-03-01T08:43:43;102477.03;;;30.81;17.26
38163;BME280;23977;53.078;18.248;2023-03-01T08:46:09;102465.47;;;31.78;16.50
38163;BME280;23977;53.078;18.248;2023-03-01T08:48:35;102440.69;;;31.78;16.69
38163;BME280;23977;53.078;18.248;2023-03-01T08:51:15;102484.34;;;33.76;14.73
38163;BME280;23977;53.078;18.248;2023-03-01T08:53:41;102470.25;;;33.92;15.10
38163;BME280;23977;53.078;18.248;2023-03-01T08:56:08;102470.69;;;35.21;13.88
38163;BME280;23977;53.078;18.248;2023-03-01T08:58:34;102454.59;;;32.94;15.00
38163;BME280;23977;53.078;18.248;2023-03-01T09:01:00;102442.59;;;34.23;14.93
38163;BME280;23977;53.078;18.248;2023-03-01T09:03:27;102477.97;;;33.85;14.31
38163;BME280;23977;53.078;18.248;2023-03-01T09:05:53;102486.00;;;35.03;13.90
38163;BME280;23977;53.078;18.248;2023-03-01T09:08:19;102467.91;;;34.61;14.19
38163;BME280;23977;53.078;18.248;2023-03-01T09:10:45;102480.38;;;33.25;14.87
38163;BME280;23977;53.078;18.248;2023-03-01T09:13:11;102440.41;;;34.00;14.92
38163;BME280;23977;53.078;18.248;2023-03-01T09:15:38;102464.22;;;34.92;14.35
38163;BME280;23977;53.078;18.248;2023-03-01T09:18:04;102488.13;;;35.62;13.97
38163;BME280;23977;53.078;18.248;2023-03-01T09:20:31;102473.75;;;35.94;13.49
38163;BME280;23977;53.078;18.248;2023-03-01T09:22:58;102456.03;;;35.21;14.25
38163;BME280;23977;53.078;18.248;2023-03-01T09:25:23;102449.91;;;36.27;13.57
38163;BME280;23977;53.078;18.248;2023-03-01T09:27:53;102467.22;;;34.04;14.80
38163;BME280;23977;53.078;18.248;2023-03-01T09:30:20;102480.19;;;35.50;13.75
38163;BME280;23977;53.078;18.248;2023-03-01T09:32:46;102468.41;;;33.04;15.34
38163;BME280;23977;53.078;18.248;2023-03-01T09:35:12;102436.88;;;32.69;15.80
38163;BME280;23977;53.078;18.248;2023-03-01T09:37:38;102437.28;;;32.45;16.01
38163;BME280;23977;53.078;18.248;2023-03-01T09:40:28;102437.72;;;32.22;15.66
38163;BME280;23977;53.078;18.248;2023-03-01T09:42:56;102456.50;;;31.11;16.53
38163;BME280;23977;53.078;18.248;2023-03-01T09:45:33;102448.50;;;31.31;16.96
38163;BME280;23977;53.078;18.248;2023-03-01T09:48:04;102387.47;;;30.41;16.65
38163;BME280;23977;53.078;18.248;2023-03-01T09:50:39;102454.88;;;31.10;16.92
38163;BME280;23977;53.078;18.248;2023-03-01T09:53:15;102434.94;;;29.51;17.92
38163;BME280;23977;53.078;18.248;2023-03-01T09:56:05;102456.91;;;30.19;17.62
38163;BME280;23977;53.078;18.248;2023-03-01T10:01:26;102437.78;;;29.91;17.87
38163;BME280;23977;53.078;18.248;2023-03-01T10:04:08;102426.19;;;31.06;17.50
38163;BME280;23977;53.078;18.248;2023-03-01T10:06:36;102394.13;;;30.45;17.87
38163;BME280;23977;53.078;18.248;2023-03-01T10:09:11;102432.88;;;32.39;16.67
38163;BME280;23977;53.078;18.248;2023-03-01T10:11:42;102443.38;;;31.72;17.26
38163;BME280;23977;53.078;18.248;2023-03-01T10:14:33;102430.94;;;33.03;15.72
38163;BME280;23977;53.078;18.248;2023-03-01T10:19:38;102395.06;;;31.92;16.99
38163;BME280;23977;53.078;18.248;2023-03-01T10:22:17;102407.22;;;31.96;16.88
38163;BME280;23977;53.078;18.248;2023-03-01T10:24:44;102355.97;;;31.52;17.25
38163;BME280;23977;53.078;18.248;2023-03-01T10:27:21;102331.44;;;32.41;16.17
38163;BME280;23977;53.078;18.248;2023-03-01T10:32:46;102396.75;;;31.93;16.62
38163;BME280;23977;53.078;18.248;2023-03-01T10:35:22;102405.81;;;29.33;18.55
38163;BME280;23977;53.078;18.248;2023-03-01T10:38:07;102389.53;;;25.07;22.07
38163;BME280;23977;53.078;18.248;2023-03-01T10:40:35;102375.41;;;20.18;27.77
38163;BME280;23977;53.078;18.248;2023-03-01T10:43:05;102427.16;;;16.74;34.83
38163;BME280;23977;53.078;18.248;2023-03-01T10:45:36;102403.16;;;15.48;36.98
38163;BME280;23977;53.078;18.248;2023-03-01T10:48:17;102360.00;;;14.58;39.41
38163;BME280;23977;53.078;18.248;2023-03-01T10:50:46;102383.00;;;13.64;41.54
38163;BME280;23977;53.078;18.248;2023-03-01T10:53:43;102392.34;;;13.20;42.96
38163;BME280;23977;53.078;18.248;2023-03-01T10:56:14;102399.81;;;12.85;44.80
38163;BME280;23977;53.078;18.248;2023-03-01T10:58:57;102371.13;;;11.51;47.98
38163;BME280;23977;53.078;18.248;2023-03-01T11:01:32;102392.00;;;11.35;49.10
38163;BME280;23977;53.078;18.248;2023-03-01T11:04:11;102363.50;;;10.69;52.04
38163;BME280;23977;53.078;18.248;2023-03-01T11:06:39;102369.19;;;10.76;52.96
38163;BME280;23977;53.078;18.248;2023-03-01T11:09:18;102386.16;;;10.86;53.58
38163;BME280;23977;53.078;18.248;2023-03-01T11:11:45;102368.97;;;10.56;54.31
38163;BME280;23977;53.078;18.248;2023-03-01T11:14:17;102337.72;;;10.24;55.13
38163;BME280;23977;53.078;18.248;2023-03-01T11:16:45;102360.06;;;10.22;56.69
38163;BME280;23977;53.078;18.248;2023-03-01T11:19:16;102392.06;;;10.09;57.59
38163;BME280;23977;53.078;18.248;2023-03-01T11:22:07;102394.53;;;10.23;58.10
38163;BME280;23977;53.078;18.248;2023-03-01T11:24:44;102359.38;;;9.95;58.23
38163;BME280;23977;53.078;18.248;2023-03-01T11:27:32;102379.41;;;10.24;57.94
38163;BME280;23977;53.078;18.248;2023-03-01T11:30:27;102364.03;;;10.05;57.60
38163;BME280;23977;53.078;18.248;2023-03-01T11:36:06;102318.19;;;9.66;60.57
38163;BME280;23977;53.078;18.248;2023-03-01T11:38:35;102351.25;;;9.86;60.58
38163;BME280;23977;53.078;18.248;2023-03-01T11:41:08;102323.13;;;9.59;58.51
38163;BME280;23977;53.078;18.248;2023-03-01T11:57:49;102371.81;;;9.84;59.18
38163;BME280;23977;53.078;18.248;2023-03-01T12:05:58;102375.59;;;9.44;57.22
38163;BME280;23977;53.078;18.248;2023-03-01T12:08:56;102378.16;;;9.45;56.37
38163;BME280;23977;53.078;18.248;2023-03-01T12:11:41;102372.00;;;9.45;56.84
38163;BME280;23977;53.078;18.248;2023-03-01T12:17:39;102365.53;;;9.60;56.85
38163;BME280;23977;53.078;18.248;2023-03-01T12:23:04;102368.03;;;9.26;59.08
38163;BME280;23977;53.078;18.248;2023-03-01T12:36:35;102344.19;;;9.38;59.89
38163;BME280;23977;53.078;18.248;2023-03-01T12:39:28;102354.13;;;9.47;59.63
38163;BME280;23977;53.078;18.248;2023-03-01T12:50:34;102317.94;;;9.09;59.94
38163;BME280;23977;53.078;18.248;2023-03-01T12:53:02;102324.19;;;9.21;59.47
38163;BME280;23977;53.078;18.248;2023-03-01T12:55:35;102287.13;;;8.82;60.13
38163;BME280;23977;53.078;18.248;2023-03-01T13:06:07;102345.28;;;9.22;59.92
38163;BME280;23977;53.078;18.248;2023-03-01T13:08:44;102318.84;;;8.97;60.94
38163;BME280;23977;53.078;18.248;2023-03-01T13:11:20;102280.44;;;8.89;60.58
38163;BME280;23977;53.078;18.248;2023-03-01T13:13:47;102281.81;;;8.82;61.13
38163;BME280;23977;53.078;18.248;2023-03-01T13:19:16;102334.69;;;8.85;62.37
38163;BME280;23977;53.078;18.248;2023-03-01T13:21:44;102339.47;;;8.80;62.89
38163;BME280;23977;53.078;18.248;2023-03-01T13:24:46;102328.94;;;8.92;62.67
38163;BME280;23977;53.078;18.248;2023-03-01T13:29:44;102328.41;;;8.99;63.61
38163;BME280;23977;53.078;18.248;2023-03-01T13:34:59;102300.47;;;8.57;64.20
38163;BME280;23977;53.078;18.248;2023-03-01T13:37:28;102311.72;;;8.47;65.12
38163;BME280;23977;53.078;18.248;2023-03-01T13:39:56;102296.63;;;8.61;64.69
38163;BME280;23977;53.078;18.248;2023-03-01T13:45:05;102314.63;;;8.44;65.33
38163;BME280;23977;53.078;18.248;2023-03-01T13:47:38;102319.56;;;8.36;65.72
38163;BME280;23977;53.078;18.248;2023-03-01T13:50:05;102286.88;;;8.48;65.60
38163;BME280;23977;53.078;18.248;2023-03-01T13:52:42;102300.75;;;8.78;64.23
38163;BME280;23977;53.078;18.248;2023-03-01T13:55:16;102314.25;;;8.62;65.28
38163;BME280;23977;53.078;18.248;2023-03-01T13:57:48;102297.72;;;8.45;65.70
38163;BME280;23977;53.078;18.248;2023-03-01T14:00:32;102311.28;;;8.54;65.99
38163;BME280;23977;53.078;18.248;2023-03-01T14:03:15;102304.59;;;8.35;66.34
38163;BME280;23977;53.078;18.248;2023-03-01T14:05:56;102270.16;;;8.09;66.88
38163;BME280;23977;53.078;18.248;2023-03-01T14:08:24;102275.22;;;8.25;66.90
38163;BME280;23977;53.078;18.248;2023-03-01T14:13:51;102291.66;;;8.18;67.25
38163;BME280;23977;53.078;18.248;2023-03-01T14:21:30;102286.38;;;8.43;67.30